sensor_id;sensor_type;location;lat;lon;timestamp;temperature;humidity
30764;DHT22;17497;51.476;7.770;2024-01-07T00:01:32;2.60;99.90
30764;DHT22;17497;51.476;7.770;2024-01-07T06:53:34;1.00;99.90
30764;DHT22;17497;51.476;7.770;2024-01-07T06:56:01;1.00;99.90
30764;DHT22;17497;51.476;7.770;2024-01-07T06:58:28;0.90;99.90
30764;DHT22;17497;51.476;7.770;2024-01-07T07:00:55;0.90;99.90
30764;DHT22;17497;51.476;7.770;2024-01-07T07:03:21;0.90;99.90
30764;DHT22;17497;51.476;7.770;2024-01-07T07:05:51;1.00;99.90
30764;DHT22;17497;51.476;7.770;2024-01-07T07:08:17;1.00;99.90
30764;DHT22;17497;51.476;7.770;2024-01-07T07:10:44;1.00;99.90
30764;DHT22;17497;51.476;7.770;2024-01-07T07:13:11;1.00;99.90
30764;DHT22;17497;51.476;7.770;2024-01-07T07:15:38;1.00;99.90
30764;DHT22;17497;51.476;7.770;2024-01-07T07:18:05;1.00;99.90
30764;DHT22;17497;51.476;7.770;2024-01-07T07:20:32;1.00;99.90
30764;DHT22;17497;51.476;7.770;2024-01-07T07:22:58;1.00;99.90
30764;DHT22;17497;51.476;7.770;2024-01-07T07:25:26;0.90;99.90
30764;DHT22;17497;51.476;7.770;2024-01-07T07:27:53;0.80;99.90
30764;DHT22;17497;51.476;7.770;2024-01-07T07:30:20;0.80;99.90
30764;DHT22;17497;51.476;7.770;2024-01-07T07:32:47;0.80;99.90
30764;DHT22;17497;51.476;7.770;2024-01-07T07:35:15;0.60;99.90
30764;DHT22;17497;51.476;7.770;2024-01-07T10:31:10;0.20;99.90
30764;DHT22;17497;51.476;7.770;2024-01-07T10:33:40;0.20;99.90
30764;DHT22;17497;51.476;7.770;2024-01-07T10:36:07;0.20;99.90
30764;DHT22;17497;51.476;7.770;2024-01-07T10:38:34;0.20;99.90
30764;DHT22;17497;51.476;7.770;2024-01-07T10:41:01;0.10;99.90
30764;DHT22;17497;51.476;7.770;2024-01-07T10:43:29;0.10;99.90
30764;DHT22;17497;51.476;7.770;2024-01-07T10:45:55;0.10;99.90
30764;DHT22;17497;51.476;7.770;2024-01-07T10:48:26;0.00;99.90
30764;DHT22;17497;51.476;7.770;2024-01-07T10:50:55;0.10;99.90
30764;DHT22;17497;51.476;7.770;2024-01-07T10:53:25;0.10;99.90
30764;DHT22;17497;51.476;7.770;2024-01-07T10:56:06;0.10;99.90
30764;DHT22;17497;51.476;7.770;2024-01-07T10:58:35;0.00;99.90
30764;DHT22;17497;51.476;7.770;2024-01-07T11:01:02;0.00;99.90
30764;DHT22;17497;51.476;7.770;2024-01-07T11:08:47;0.00;99.90
30764;DHT22;17497;51.476;7.770;2024-01-07T11:11:25;0.10;99.90
30764;DHT22;17497;51.476;7.770;2024-01-07T11:13:53;0.10;99.90
30764;DHT22;17497;51.476;7.770;2024-01-07T11:16:40;0.10;99.90
30764;DHT22;17497;51.476;7.770;2024-01-07T11:19:08;0.00;99.90
30764;DHT22;17497;51.476;7.770;2024-01-07T11:21:34;0.00;99.90
30764;DHT22;17497;51.476;7.770;2024-01-07T11:24:01;0.00;99.90
30764;DHT22;17497;51.476;7.770;2024-01-07T11:26:29;0.00;99.90
30764;DHT22;17497;51.476;7.770;2024-01-07T11:28:57;-0.10;99.90
30764;DHT22;17497;51.476;7.770;2024-01-07T11:31:42;0.00;99.90
30764;DHT22;17497;51.476;7.770;2024-01-07T11:34:09;0.00;99.90
30764;DHT22;17497;51.476;7.770;2024-01-07T11:36:36;0.00;99.90
30764;DHT22;17497;51.476;7.770;2024-01-07T11:39:04;0.00;99.90
30764;DHT22;17497;51.476;7.770;2024-01-07T11:41:33;-0.10;99.90
30764;DHT22;17497;51.476;7.770;2024-01-07T11:44:00;-0.10;99.90
30764;DHT22;17497;51.476;7.770;2024-01-07T11:46:30;-0.10;99.90
30764;DHT22;17497;51.476;7.770;2024-01-07T11:49:01;-0.10;99.90
30764;DHT22;17497;51.476;7.770;2024-01-07T11:51:29;0.00;99.90
30764;DHT22;17497;51.476;7.770;2024-01-07T11:54:00;-0.10;99.90
30764;DHT22;17497;51.476;7.770;2024-01-07T11:56:28;-0.10;99.90
30764;DHT22;17497;51.476;7.770;2024-01-07T11:58:55;0.00;99.90
30764;DHT22;17497;51.476;7.770;2024-01-07T12:01:26;0.00;99.90
30764;DHT22;17497;51.476;7.770;2024-01-07T12:03:53;-0.10;99.90
30764;DHT22;17497;51.476;7.770;2024-01-07T12:06:20;-0.10;99.90
30764;DHT22;17497;51.476;7.770;2024-01-07T12:08:47;-0.20;99.90
30764;DHT22;17497;51.476;7.770;2024-01-07T12:11:14;-0.10;99.90
30764;DHT22;17497;51.476;7.770;2024-01-07T12:13:41;-0.10;99.90
30764;DHT22;17497;51.476;7.770;2024-01-07T12:16:08;-0.20;99.90
30764;DHT22;17497;51.476;7.770;2024-01-07T12:18:38;-0.10;99.90
30764;DHT22;17497;51.476;7.770;2024-01-07T12:21:05;-0.30;99.90
30764;DHT22;17497;51.476;7.770;2024-01-07T12:23:35;-0.30;99.90
30764;DHT22;17497;51.476;7.770;2024-01-07T12:26:10;-0.20;99.90
30764;DHT22;17497;51.476;7.770;2024-01-07T12:28:37;0.00;99.90
30764;DHT22;17497;51.476;7.770;2024-01-07T12:31:05;0.10;99.90
30764;DHT22;17497;51.476;7.770;2024-01-07T12:33:32;0.20;99.90
30764;DHT22;17497;51.476;7.770;2024-01-07T12:36:00;0.30;99.90
30764;DHT22;17497;51.476;7.770;2024-01-07T12:38:27;0.30;99.90
30764;DHT22;17497;51.476;7.770;2024-01-07T12:40:55;0.20;97.20
30764;DHT22;17497;51.476;7.770;2024-01-07T12:43:21;0.20;99.90
30764;DHT22;17497;51.476;7.770;2024-01-07T12:45:49;0.20;97.90
30764;DHT22;17497;51.476;7.770;2024-01-07T12:48:16;0.20;96.00
30764;DHT22;17497;51.476;7.770;2024-01-07T12:50:43;0.20;99.90
30764;DHT22;17497;51.476;7.770;2024-01-07T12:53:09;0.20;99.90
30764;DHT22;17497;51.476;7.770;2024-01-07T12:55:36;0.20;99.90
30764;DHT22;17497;51.476;7.770;2024-01-07T12:58:03;0.10;99.90
30764;DHT22;17497;51.476;7.770;2024-01-07T13:00:29;0.10;99.90
30764;DHT22;17497;51.476;7.770;2024-01-07T13:02:56;0.10;95.80
30764;DHT22;17497;51.476;7.770;2024-01-07T13:05:26;0.00;99.90
30764;DHT22;17497;51.476;7.770;2024-01-07T13:07:53;-0.10;99.90
30764;DHT22;17497;51.476;7.770;2024-01-07T13:10:20;-0.10;99.90
30764;DHT22;17497;51.476;7.770;2024-01-07T13:12:47;-0.10;99.90
30764;DHT22;17497;51.476;7.770;2024-01-07T13:15:16;-0.10;99.90
30764;DHT22;17497;51.476;7.770;2024-01-07T13:17:43;-0.10;99.90
30764;DHT22;17497;51.476;7.770;2024-01-07T13:20:10;-0.20;99.90
30764;DHT22;17497;51.476;7.770;2024-01-07T13:22:38;-0.30;93.10
30764;DHT22;17497;51.476;7.770;2024-01-07T13:25:05;-0.30;98.60
30764;DHT22;17497;51.476;7.770;2024-01-07T13:27:32;-0.30;99.90
30764;DHT22;17497;51.476;7.770;2024-01-07T13:30:01;-0.10;99.90
30764;DHT22;17497;51.476;7.770;2024-01-07T13:32:28;-0.20;91.50
30764;DHT22;17497;51.476;7.770;2024-01-07T13:34:55;-0.10;81.30
30764;DHT22;17497;51.476;7.770;2024-01-07T13:37:21;-0.10;82.00
30764;DHT22;17497;51.476;7.770;2024-01-07T13:39:48;-0.10;95.00
30764;DHT22;17497;51.476;7.770;2024-01-07T13:42:16;-0.10;99.90
30764;DHT22;17497;51.476;7.770;2024-01-07T13:44:43;-0.10;99.90
30764;DHT22;17497;51.476;7.770;2024-01-07T13:47:13;-0.20;99.90
30764;DHT22;17497;51.476;7.770;2024-01-07T13:49:43;-0.30;99.90
30764;DHT22;17497;51.476;7.770;2024-01-07T13:52:13;-0.10;99.90
30764;DHT22;17497;51.476;7.770;2024-01-07T13:54:41;-0.20;99.90
30764;DHT22;17497;51.476;7.770;2024-01-07T13:57:08;-0.20;99.90
30764;DHT22;17497;51.476;7.770;2024-01-07T13:59:35;-0.10;99.90
30764;DHT22;17497;51.476;7.770;2024-01-07T14:02:06;0.00;99.90
30764;DHT22;17497;51.476;7.770;2024-01-07T14:04:33;0.00;94.40
30764;DHT22;17497;51.476;7.770;2024-01-07T14:07:00;0.00;51.70
30764;DHT22;17497;51.476;7.770;2024-01-07T14:09:26;0.00;55.20
30764;DHT22;17497;51.476;7.770;2024-01-07T14:11:57;0.00;68.90
30764;DHT22;17497;51.476;7.770;2024-01-07T14:14:24;-0.10;95.70
30764;DHT22;17497;51.476;7.770;2024-01-07T14:16:51;-0.20;68.20
30764;DHT22;17497;51.476;7.770;2024-01-07T14:19:18;-0.20;74.80
30764;DHT22;17497;51.476;7.770;2024-01-07T14:21:45;-0.10;65.00
30764;DHT22;17497;51.476;7.770;2024-01-07T14:24:12;-0.20;78.80
30764;DHT22;17497;51.476;7.770;2024-01-07T14:26:38;-0.20;45.40
30764;DHT22;17497;51.476;7.770;2024-01-07T14:29:05;-0.10;49.20
30764;DHT22;17497;51.476;7.770;2024-01-07T14:31:41;-0.20;78.40
30764;DHT22;17497;51.476;7.770;2024-01-07T14:34:08;-0.30;73.60
30764;DHT22;17497;51.476;7.770;2024-01-07T14:36:34;-0.30;35.10
30764;DHT22;17497;51.476;7.770;2024-01-07T14:39:05;-0.40;56.70
30764;DHT22;17497;51.476;7.770;2024-01-07T14:41:32;-0.30;90.20
30764;DHT22;17497;51.476;7.770;2024-01-07T14:43:58;-0.30;56.20
30764;DHT22;17497;51.476;7.770;2024-01-07T14:46:27;-0.20;42.50
30764;DHT22;17497;51.476;7.770;2024-01-07T14:48:53;-0.10;48.40
30764;DHT22;17497;51.476;7.770;2024-01-07T14:51:20;-0.10;53.00
30764;DHT22;17497;51.476;7.770;2024-01-07T14:53:47;0.00;59.20
30764;DHT22;17497;51.476;7.770;2024-01-07T14:56:13;0.00;21.50
30764;DHT22;17497;51.476;7.770;2024-01-07T14:58:40;0.00;57.60
30764;DHT22;17497;51.476;7.770;2024-01-07T15:01:07;0.00;36.40
30764;DHT22;17497;51.476;7.770;2024-01-07T15:03:34;0.00;32.20
30764;DHT22;17497;51.476;7.770;2024-01-07T15:06:00;-0.10;52.30
30764;DHT22;17497;51.476;7.770;2024-01-07T15:08:27;-0.10;65.30
30764;DHT22;17497;51.476;7.770;2024-01-07T15:10:54;-0.20;73.70
30764;DHT22;17497;51.476;7.770;2024-01-07T15:13:20;-0.30;94.40
30764;DHT22;17497;51.476;7.770;2024-01-07T15:15:50;-0.20;93.00
30764;DHT22;17497;51.476;7.770;2024-01-07T15:18:16;-0.30;84.20
30764;DHT22;17497;51.476;7.770;2024-01-07T15:20:44;-0.30;99.80
30764;DHT22;17497;51.476;7.770;2024-01-07T15:23:10;-0.30;99.90
30764;DHT22;17497;51.476;7.770;2024-01-07T15:25:37;-0.30;99.90
30764;DHT22;17497;51.476;7.770;2024-01-07T15:28:04;-0.30;99.90
30764;DHT22;17497;51.476;7.770;2024-01-07T15:30:31;-0.20;99.90
30764;DHT22;17497;51.476;7.770;2024-01-07T15:32:58;-0.30;95.10
30764;DHT22;17497;51.476;7.770;2024-01-07T15:35:24;-0.30;99.90
30764;DHT22;17497;51.476;7.770;2024-01-07T15:37:51;-0.30;99.90
30764;DHT22;17497;51.476;7.770;2024-01-07T15:40:18;-0.30;98.10
30764;DHT22;17497;51.476;7.770;2024-01-07T15:42:45;-0.20;93.40
30764;DHT22;17497;51.476;7.770;2024-01-07T15:45:12;-0.20;99.90
30764;DHT22;17497;51.476;7.770;2024-01-07T15:47:38;-0.20;99.90
30764;DHT22;17497;51.476;7.770;2024-01-07T15:50:06;-0.20;82.80
30764;DHT22;17497;51.476;7.770;2024-01-07T15:52:33;-0.20;84.10
30764;DHT22;17497;51.476;7.770;2024-01-07T15:55:00;-0.20;77.80
30764;DHT22;17497;51.476;7.770;2024-01-07T15:57:26;-0.20;87.40
30764;DHT22;17497;51.476;7.770;2024-01-07T15:59:53;-0.20;83.30
30764;DHT22;17497;51.476;7.770;2024-01-07T16:02:20;-0.20;78.00
30764;DHT22;17497;51.476;7.770;2024-01-07T16:04:47;-0.20;84.00
30764;DHT22;17497;51.476;7.770;2024-01-07T16:07:13;-0.20;96.00
30764;DHT22;17497;51.476;7.770;2024-01-07T16:09:40;-0.10;95.60
30764;DHT22;17497;51.476;7.770;2024-01-07T16:12:08;-0.10;90.50
30764;DHT22;17497;51.476;7.770;2024-01-07T16:14:36;-0.10;57.70
30764;DHT22;17497;51.476;7.770;2024-01-07T16:17:04;0.00;81.80
30764;DHT22;17497;51.476;7.770;2024-01-07T16:19:30;0.00;91.90
30764;DHT22;17497;51.476;7.770;2024-01-07T16:21:57;0.00;74.80
30764;DHT22;17497;51.476;7.770;2024-01-07T16:24:27;0.00;75.60
30764;DHT22;17497;51.476;7.770;2024-01-07T16:27:07;0.00;97.90
30764;DHT22;17497;51.476;7.770;2024-01-07T16:29:34;0.00;91.60
30764;DHT22;17497;51.476;7.770;2024-01-07T16:32:09;0.00;98.50
30764;DHT22;17497;51.476;7.770;2024-01-07T16:37:04;0.00;99.90
30764;DHT22;17497;51.476;7.770;2024-01-07T16:39:31;0.00;99.90
30764;DHT22;17497;51.476;7.770;2024-01-07T16:41:57;0.00;99.90
30764;DHT22;17497;51.476;7.770;2024-01-07T16:44:24;0.00;99.90
30764;DHT22;17497;51.476;7.770;2024-01-07T16:46:51;0.00;99.90
30764;DHT22;17497;51.476;7.770;2024-01-07T16:49:17;0.10;99.90
30764;DHT22;17497;51.476;7.770;2024-01-07T16:51:47;0.10;99.90
30764;DHT22;17497;51.476;7.770;2024-01-07T16:54:14;0.10;99.90
30764;DHT22;17497;51.476;7.770;2024-01-07T16:56:40;0.10;99.90
30764;DHT22;17497;51.476;7.770;2024-01-07T16:59:23;0.10;99.90
30764;DHT22;17497;51.476;7.770;2024-01-07T17:02:20;0.20;99.90
30764;DHT22;17497;51.476;7.770;2024-01-07T17:04:47;0.20;99.90
30764;DHT22;17497;51.476;7.770;2024-01-07T17:07:14;0.20;99.90
30764;DHT22;17497;51.476;7.770;2024-01-07T17:09:41;0.20;99.90
30764;DHT22;17497;51.476;7.770;2024-01-07T17:12:10;0.10;99.90
30764;DHT22;17497;51.476;7.770;2024-01-07T17:14:37;0.10;99.90
30764;DHT22;17497;51.476;7.770;2024-01-07T17:17:03;0.10;99.90
30764;DHT22;17497;51.476;7.770;2024-01-07T17:19:30;0.10;99.90
30764;DHT22;17497;51.476;7.770;2024-01-07T17:21:57;0.00;99.90
30764;DHT22;17497;51.476;7.770;2024-01-07T17:24:23;0.00;99.90
30764;DHT22;17497;51.476;7.770;2024-01-07T17:26:50;0.00;99.90
30764;DHT22;17497;51.476;7.770;2024-01-07T17:29:17;0.00;99.90
30764;DHT22;17497;51.476;7.770;2024-01-07T17:31:43;-0.10;99.90
30764;DHT22;17497;51.476;7.770;2024-01-07T17:34:10;-0.10;99.90
30764;DHT22;17497;51.476;7.770;2024-01-07T17:36:37;0.00;99.90
30764;DHT22;17497;51.476;7.770;2024-01-07T17:39:04;-0.10;99.90
30764;DHT22;17497;51.476;7.770;2024-01-07T17:41:36;-0.20;99.90
30764;DHT22;17497;51.476;7.770;2024-01-07T17:44:03;-0.20;99.90
30764;DHT22;17497;51.476;7.770;2024-01-07T17:46:30;-0.30;99.90
30764;DHT22;17497;51.476;7.770;2024-01-07T17:48:59;-0.30;99.90
30764;DHT22;17497;51.476;7.770;2024-01-07T17:51:25;-0.40;99.90
30764;DHT22;17497;51.476;7.770;2024-01-07T17:53:54;-0.50;99.90
30764;DHT22;17497;51.476;7.770;2024-01-07T17:56:21;-0.40;99.90
30764;DHT22;17497;51.476;7.770;2024-01-07T17:58:47;-0.50;99.90
30764;DHT22;17497;51.476;7.770;2024-01-07T18:01:16;-0.40;99.90
30764;DHT22;17497;51.476;7.770;2024-01-07T18:03:42;-0.50;99.90
30764;DHT22;17497;51.476;7.770;2024-01-07T18:06:09;-0.50;99.90
30764;DHT22;17497;51.476;7.770;2024-01-07T18:08:36;-0.40;99.90
30764;DHT22;17497;51.476;7.770;2024-01-07T18:11:08;-0.50;99.90
30764;DHT22;17497;51.476;7.770;2024-01-07T18:13:34;-0.50;99.90
30764;DHT22;17497;51.476;7.770;2024-01-07T18:16:01;-0.60;99.90
30764;DHT22;17497;51.476;7.770;2024-01-07T18:18:28;-0.60;99.90
30764;DHT22;17497;51.476;7.770;2024-01-07T18:20:55;-0.70;99.90
30764;DHT22;17497;51.476;7.770;2024-01-07T18:23:22;-0.70;99.90
30764;DHT22;17497;51.476;7.770;2024-01-07T18:25:49;-0.70;99.90
30764;DHT22;17497;51.476;7.770;2024-01-07T18:28:16;-0.80;99.90
30764;DHT22;17497;51.476;7.770;2024-01-07T18:30:42;-0.80;99.90
30764;DHT22;17497;51.476;7.770;2024-01-07T18:33:11;-0.90;99.90
30764;DHT22;17497;51.476;7.770;2024-01-07T18:35:38;-1.00;99.90
30764;DHT22;17497;51.476;7.770;2024-01-07T18:38:05;-1.00;99.90
30764;DHT22;17497;51.476;7.770;2024-01-07T18:40:33;-1.00;99.90
30764;DHT22;17497;51.476;7.770;2024-01-07T18:43:00;-1.00;99.90
30764;DHT22;17497;51.476;7.770;2024-01-07T18:45:28;-1.00;99.90
30764;DHT22;17497;51.476;7.770;2024-01-07T18:47:55;-1.00;99.90
30764;DHT22;17497;51.476;7.770;2024-01-07T18:50:22;-1.10;99.90
30764;DHT22;17497;51.476;7.770;2024-01-07T18:52:49;-1.10;99.90
30764;DHT22;17497;51.476;7.770;2024-01-07T18:55:17;-1.10;99.90
30764;DHT22;17497;51.476;7.770;2024-01-07T18:57:46;-1.20;99.90
30764;DHT22;17497;51.476;7.770;2024-01-07T19:00:13;-1.20;99.90
30764;DHT22;17497;51.476;7.770;2024-01-07T19:02:40;-1.20;99.90
30764;DHT22;17497;51.476;7.770;2024-01-07T19:05:07;-1.20;99.90
30764;DHT22;17497;51.476;7.770;2024-01-07T19:07:40;-1.20;99.90
30764;DHT22;17497;51.476;7.770;2024-01-07T19:10:29;-1.20;99.90
30764;DHT22;17497;51.476;7.770;2024-01-07T19:13:05;-1.20;99.90
30764;DHT22;17497;51.476;7.770;2024-01-07T19:15:32;-1.30;99.90
30764;DHT22;17497;51.476;7.770;2024-01-07T19:21:00;-1.30;99.90
30764;DHT22;17497;51.476;7.770;2024-01-07T19:23:36;-1.30;99.90
30764;DHT22;17497;51.476;7.770;2024-01-07T19:26:12;-1.30;99.90
30764;DHT22;17497;51.476;7.770;2024-01-07T19:29:05;-1.40;99.90
30764;DHT22;17497;51.476;7.770;2024-01-07T19:48:32;-1.50;99.90
30764;DHT22;17497;51.476;7.770;2024-01-07T19:54:46;-1.60;99.90
30764;DHT22;17497;51.476;7.770;2024-01-07T19:57:20;-1.60;99.90
30764;DHT22;17497;51.476;7.770;2024-01-07T20:00:04;-1.60;99.90
30764;DHT22;17497;51.476;7.770;2024-01-07T20:05:51;-1.60;99.90
30764;DHT22;17497;51.476;7.770;2024-01-07T20:08:19;-1.60;99.90
30764;DHT22;17497;51.476;7.770;2024-01-07T20:10:48;-1.60;99.90
30764;DHT22;17497;51.476;7.770;2024-01-07T20:13:19;-1.60;99.90
30764;DHT22;17497;51.476;7.770;2024-01-07T20:16:00;-1.60;99.90
30764;DHT22;17497;51.476;7.770;2024-01-07T20:18:33;-1.60;99.90
30764;DHT22;17497;51.476;7.770;2024-01-07T20:21:01;-1.70;99.90
30764;DHT22;17497;51.476;7.770;2024-01-07T20:23:55;-1.70;99.90
30764;DHT22;17497;51.476;7.770;2024-01-07T20:26:42;-1.70;99.90
30764;DHT22;17497;51.476;7.770;2024-01-07T20:29:21;-1.70;99.90
30764;DHT22;17497;51.476;7.770;2024-01-07T20:31:54;-1.70;99.90
30764;DHT22;17497;51.476;7.770;2024-01-07T20:34:21;-1.70;99.90
30764;DHT22;17497;51.476;7.770;2024-01-07T20:36:56;-1.70;99.90
30764;DHT22;17497;51.476;7.770;2024-01-07T20:40:15;-1.80;99.90
30764;DHT22;17497;51.476;7.770;2024-01-07T20:42:46;-1.80;99.90
30764;DHT22;17497;51.476;7.770;2024-01-07T20:45:14;-1.80;99.90
30764;DHT22;17497;51.476;7.770;2024-01-07T20:47:44;-1.80;99.90
30764;DHT22;17497;51.476;7.770;2024-01-07T20:50:32;-1.80;99.90
30764;DHT22;17497;51.476;7.770;2024-01-07T20:53:01;-1.80;99.90
30764;DHT22;17497;51.476;7.770;2024-01-07T20:55:29;-1.70;99.90
30764;DHT22;17497;51.476;7.770;2024-01-07T20:58:20;-1.70;99.90
30764;DHT22;17497;51.476;7.770;2024-01-07T21:03:42;-1.50;99.90
30764;DHT22;17497;51.476;7.770;2024-01-07T21:06:13;-1.50;99.90
30764;DHT22;17497;51.476;7.770;2024-01-07T21:08:43;-1.40;99.90
30764;DHT22;17497;51.476;7.770;2024-01-07T21:11:14;-1.40;99.90
30764;DHT22;17497;51.476;7.770;2024-01-07T21:13:50;-1.20;99.90
30764;DHT22;17497;51.476;7.770;2024-01-07T21:16:21;-1.20;99.90
30764;DHT22;17497;51.476;7.770;2024-01-07T21:18:57;-1.10;99.90
30764;DHT22;17497;51.476;7.770;2024-01-07T21:24:49;-1.10;99.90
30764;DHT22;17497;51.476;7.770;2024-01-07T21:31:17;-1.00;99.90
30764;DHT22;17497;51.476;7.770;2024-01-07T21:34:08;-1.10;99.90
30764;DHT22;17497;51.476;7.770;2024-01-07T21:36:53;-1.10;99.90
30764;DHT22;17497;51.476;7.770;2024-01-07T21:43:16;-1.10;99.90
30764;DHT22;17497;51.476;7.770;2024-01-07T21:45:43;-1.00;99.90
30764;DHT22;17497;51.476;7.770;2024-01-07T21:48:16;-1.10;99.90
30764;DHT22;17497;51.476;7.770;2024-01-07T21:50:46;-1.10;99.90
30764;DHT22;17497;51.476;7.770;2024-01-07T21:53:13;-1.10;99.90
30764;DHT22;17497;51.476;7.770;2024-01-07T21:55:40;-1.10;99.90
30764;DHT22;17497;51.476;7.770;2024-01-07T21:58:07;-1.10;99.90
30764;DHT22;17497;51.476;7.770;2024-01-07T22:00:37;-1.20;99.90
30764;DHT22;17497;51.476;7.770;2024-01-07T22:03:03;-1.20;99.90
30764;DHT22;17497;51.476;7.770;2024-01-07T22:05:30;-1.10;99.90
30764;DHT22;17497;51.476;7.770;2024-01-07T22:07:57;-1.10;99.90
30764;DHT22;17497;51.476;7.770;2024-01-07T22:13:26;-1.10;99.90
30764;DHT22;17497;51.476;7.770;2024-01-07T22:15:53;-1.10;99.90
30764;DHT22;17497;51.476;7.770;2024-01-07T22:18:20;-1.10;99.90
30764;DHT22;17497;51.476;7.770;2024-01-07T22:20:47;-1.10;99.90
30764;DHT22;17497;51.476;7.770;2024-01-07T22:23:13;-1.10;99.90
30764;DHT22;17497;51.476;7.770;2024-01-07T22:25:40;-1.10;99.90
30764;DHT22;17497;51.476;7.770;2024-01-07T22:28:07;-1.10;99.90
30764;DHT22;17497;51.476;7.770;2024-01-07T22:30:33;-1.10;99.90
30764;DHT22;17497;51.476;7.770;2024-01-07T22:33:01;-1.20;99.90
30764;DHT22;17497;51.476;7.770;2024-01-07T22:35:27;-1.20;99.90
30764;DHT22;17497;51.476;7.770;2024-01-07T22:37:55;-1.30;99.90
30764;DHT22;17497;51.476;7.770;2024-01-07T22:40:22;-1.20;99.90
30764;DHT22;17497;51.476;7.770;2024-01-07T22:45:17;-1.20;99.90
30764;DHT22;17497;51.476;7.770;2024-01-07T22:47:43;-1.20;99.90
30764;DHT22;17497;51.476;7.770;2024-01-07T22:50:10;-1.10;99.90
30764;DHT22;17497;51.476;7.770;2024-01-07T22:52:37;-1.10;99.90
30764;DHT22;17497;51.476;7.770;2024-01-07T22:55:04;-1.10;99.90
30764;DHT22;17497;51.476;7.770;2024-01-07T22:57:30;-1.10;99.90
30764;DHT22;17497;51.476;7.770;2024-01-07T22:59:57;-1.10;99.90
30764;DHT22;17497;51.476;7.770;2024-01-07T23:02:23;-1.10;99.90
30764;DHT22;17497;51.476;7.770;2024-01-07T23:04:50;-1.20;99.90
30764;DHT22;17497;51.476;7.770;2024-01-07T23:07:17;-1.30;99.90
30764;DHT22;17497;51.476;7.770;2024-01-07T23:09:44;-1.20;99.90
30764;DHT22;17497;51.476;7.770;2024-01-07T23:12:11;-1.20;99.90
30764;DHT22;17497;51.476;7.770;2024-01-07T23:14:37;-1.20;99.90
30764;DHT22;17497;51.476;7.770;2024-01-07T23:17:04;-1.20;99.90
30764;DHT22;17497;51.476;7.770;2024-01-07T23:19:31;-1.20;99.90
30764;DHT22;17497;51.476;7.770;2024-01-07T23:21:57;-1.20;99.90
30764;DHT22;17497;51.476;7.770;2024-01-07T23:24:24;-1.20;99.90
30764;DHT22;17497;51.476;7.770;2024-01-07T23:26:50;-1.20;99.90
30764;DHT22;17497;51.476;7.770;2024-01-07T23:29:17;-1.20;99.90
30764;DHT22;17497;51.476;7.770;2024-01-07T23:31:44;-1.20;92.70
30764;DHT22;17497;51.476;7.770;2024-01-07T23:34:12;-1.30;99.90
30764;DHT22;17497;51.476;7.770;2024-01-07T23:36:39;-1.40;99.90
30764;DHT22;17497;51.476;7.770;2024-01-07T23:39:06;-1.30;99.90
30764;DHT22;17497;51.476;7.770;2024-01-07T23:41:33;-1.30;99.90
30764;DHT22;17497;51.476;7.770;2024-01-07T23:43:59;-1.30;99.90
30764;DHT22;17497;51.476;7.770;2024-01-07T23:46:26;-1.30;99.90
30764;DHT22;17497;51.476;7.770;2024-01-07T23:48:53;-1.30;99.90
30764;DHT22;17497;51.476;7.770;2024-01-07T23:51:20;-1.30;96.00
30764;DHT22;17497;51.476;7.770;2024-01-07T23:53:47;-1.40;99.50
30764;DHT22;17497;51.476;7.770;2024-01-07T23:56:14;-1.30;99.90
30764;DHT22;17497;51.476;7.770;2024-01-07T23:58:41;-1.30;99.90
